sensor_id;sensor_type;location;lat;lon;timestamp;pressure;altitude;pressure_sealevel;temperature;humidity
41624;BME280;27319;50.306;18.926;2023-09-18T00:00:29;98309.25;;;16.70;93.53
41624;BME280;27319;50.306;18.926;2023-09-18T00:04:34;98308.41;;;16.76;93.17
41624;BME280;27319;50.306;18.926;2023-09-18T00:08:35;98309.88;;;16.72;92.53
41624;BME280;27319;50.306;18.926;2023-09-18T00:12:36;98303.41;;;16.66;93.22
41624;BME280;27319;50.306;18.926;2023-09-18T00:16:16;98300.28;;;16.69;93.34
41624;BME280;27319;50.306;18.926;2023-09-18T00:19:18;98300.91;;;16.65;92.83
41624;BME280;27319;50.306;18.926;2023-09-18T00:22:18;98294.63;;;16.58;93.56
41624;BME280;27319;50.306;18.926;2023-09-18T00:25:19;98307.34;;;16.57;93.42
41624;BME280;27319;50.306;18.926;2023-09-18T00:28:29;98302.97;;;16.56;93.15
41624;BME280;27319;50.306;18.926;2023-09-18T00:31:50;98300.47;;;16.55;93.27
41624;BME280;27319;50.306;18.926;2023-09-18T00:35:51;98295.63;;;16.44;94.70
41624;BME280;27319;50.306;18.926;2023-09-18T00:39:31;98300.84;;;16.52;93.71
41624;BME280;27319;50.306;18.926;2023-09-18T00:42:32;98297.53;;;16.50;96.18
41624;BME280;27319;50.306;18.926;2023-09-18T00:45:33;98306.03;;;16.47;95.15
41624;BME280;27319;50.306;18.926;2023-09-18T00:48:34;98307.13;;;16.52;96.01
41624;BME280;27319;50.306;18.926;2023-09-18T00:51:35;98303.78;;;16.57;94.31
41624;BME280;27319;50.306;18.926;2023-09-18T00:54:56;98309.31;;;16.36;96.55
41624;BME280;27319;50.306;18.926;2023-09-18T00:58:57;98300.16;;;16.37;95.94
41624;BME280;27319;50.306;18.926;2023-09-18T22:31:30;97562.25;;;19.23;81.29
41624;BME280;27319;50.306;18.926;2023-09-18T22:35:25;97564.13;;;19.34;80.92
41624;BME280;27319;50.306;18.926;2023-09-18T22:55:41;97544.63;;;19.25;81.14
41624;BME280;27319;50.306;18.926;2023-09-18T22:58:44;97548.63;;;19.34;81.51
41624;BME280;27319;50.306;18.926;2023-09-18T23:01:47;97542.00;;;19.30;81.99
41624;BME280;27319;50.306;18.926;2023-09-18T23:04:48;97545.94;;;19.23;81.78
41624;BME280;27319;50.306;18.926;2023-09-18T23:08:00;97533.59;;;19.20;81.81
41624;BME280;27319;50.306;18.926;2023-09-18T23:11:03;97521.31;;;19.06;82.48
41624;BME280;27319;50.306;18.926;2023-09-18T23:14:05;97518.50;;;19.13;81.96
41624;BME280;27319;50.306;18.926;2023-09-18T23:17:08;97525.84;;;19.24;81.98
41624;BME280;27319;50.306;18.926;2023-09-18T23:20:15;97529.72;;;19.28;81.37
41624;BME280;27319;50.306;18.926;2023-09-18T23:23:35;97529.72;;;19.28;80.94
41624;BME280;27319;50.306;18.926;2023-09-18T23:27:16;97525.47;;;19.32;81.86
41624;BME280;27319;50.306;18.926;2023-09-18T23:30:19;97530.56;;;19.28;81.03
41624;BME280;27319;50.306;18.926;2023-09-18T23:33:21;97525.69;;;19.30;81.37
41624;BME280;27319;50.306;18.926;2023-09-18T23:36:23;97529.34;;;19.36;81.39
41624;BME280;27319;50.306;18.926;2023-09-18T23:39:25;97521.19;;;19.36;81.50
41624;BME280;27319;50.306;18.926;2023-09-18T23:42:46;97529.81;;;19.33;81.18
41624;BME280;27319;50.306;18.926;2023-09-18T23:46:27;97530.41;;;19.35;81.07
41624;BME280;27319;50.306;18.926;2023-09-18T23:49:28;97528.75;;;19.34;81.58
41624;BME280;27319;50.306;18.926;2023-09-18T23:52:29;97515.41;;;19.32;80.70
41624;BME280;27319;50.306;18.926;2023-09-18T23:55:31;97514.69;;;19.37;81.55
41624;BME280;27319;50.306;18.926;2023-09-18T23:58:32;97508.41;;;19.36;80.86
